createdAt,value
2023-04-18T00:00:51.430Z,101265.51
2023-04-18T00:05:54.332Z,101265.48
2023-04-18T00:10:57.236Z,101264.40
2023-04-18T00:16:00.145Z,101258.10
2023-04-18T00:21:03.875Z,101259.39
2023-04-18T00:26:06.763Z,101258.59
2023-04-18T00:31:09.704Z,101255.35
2023-04-18T00:36:12.672Z,101257.45
2023-04-18T00:41:16.766Z,101256.12
2023-04-18T00:46:19.784Z,101261.44
2023-04-18T00:51:22.934Z,101259.70
2023-04-18T00:56:26.129Z,101256.52
2023-04-18T01:01:29.380Z,101258.83
2023-04-18T01:06:32.965Z,101260.19
2023-04-18T01:11:36.277Z,101264.33
2023-04-18T01:16:39.195Z,101264.23
2023-04-18T01:21:44.070Z,101258.94
2023-04-18T01:26:50.116Z,101259.30
2023-04-18T01:31:54.045Z,101259.15
2023-04-18T01:36:57.083Z,101260.11
2023-04-18T01:42:02.281Z,101265.48
2023-04-18T01:47:05.624Z,101270.19
2023-04-18T01:52:08.837Z,101274.30
2023-04-18T01:57:11.732Z,101272.15
2023-04-18T02:02:14.806Z,101273.56
2023-04-18T02:07:17.758Z,101271.00
2023-04-18T02:12:21.161Z,101271.04
2023-04-18T02:17:24.294Z,101274.36
2023-04-18T02:22:27.383Z,101279.42
2023-04-18T02:27:30.448Z,101274.23
2023-04-18T02:32:33.424Z,101271.19
2023-04-18T02:37:36.512Z,101268.39
2023-04-18T02:42:40.061Z,101266.10
2023-04-18T02:47:54.669Z,101263.21
2023-04-18T02:52:58.733Z,101266.11
2023-04-18T02:58:01.660Z,101266.91
2023-04-18T03:03:05.857Z,101268.07
2023-04-18T03:08:08.896Z,101264.39
2023-04-18T03:13:11.733Z,101264.55
2023-04-18T03:18:14.901Z,101266.24
2023-04-18T03:23:17.799Z,101267.80
2023-04-18T03:28:20.800Z,101269.34
2023-04-18T03:33:24.220Z,101266.64
2023-04-18T03:38:27.224Z,101270.44
2023-04-18T03:43:30.125Z,101269.93
2023-04-18T03:48:36.437Z,101270.90
2023-04-18T03:53:39.275Z,101268.39
2023-04-18T03:58:42.224Z,101272.54
2023-04-18T04:03:45.361Z,101274.90
2023-04-18T04:08:48.550Z,101275.94
2023-04-18T04:13:51.453Z,101278.73
2023-04-18T04:18:54.368Z,101286.23
2023-04-18T04:23:57.692Z,101288.41
2023-04-18T04:29:00.569Z,101287.85
2023-04-18T04:34:05.105Z,101285.89
2023-04-18T04:39:08.931Z,101286.85
2023-04-18T04:44:12.502Z,101297.35
2023-04-18T04:49:15.659Z,101300.20
2023-04-18T04:54:18.568Z,101303.06
2023-04-18T04:59:21.474Z,101307.80
2023-04-18T05:04:25.625Z,101308.28
2023-04-18T05:09:28.913Z,101312.27
2023-04-18T05:14:31.823Z,101314.89
2023-04-18T05:19:35.405Z,101320.52
2023-04-18T05:24:38.451Z,101326.79
2023-04-18T05:29:41.567Z,101329.02
2023-04-18T05:34:44.662Z,101325.16
2023-04-18T05:39:47.568Z,101325.84
2023-04-18T05:44:50.732Z,101322.58
2023-04-18T05:49:53.896Z,101324.77
2023-04-18T05:54:56.810Z,101330.42
2023-04-18T06:00:00.244Z,101329.90
2023-04-18T06:05:03.674Z,101327.84
2023-04-18T06:10:11.202Z,101323.33
2023-04-18T06:15:14.053Z,101322.30
2023-04-18T06:20:17.059Z,101319.40
2023-04-18T06:25:20.914Z,101321.84
2023-04-18T06:30:23.785Z,101323.24
2023-04-18T06:35:26.829Z,101322.17
2023-04-18T06:40:30.096Z,101325.29
2023-04-18T06:45:33.352Z,101326.30
2023-04-18T06:50:36.418Z,101331.48
2023-04-18T06:55:40.960Z,101332.48
2023-04-18T07:00:43.932Z,101342.03
2023-04-18T07:05:47.083Z,101344.55
2023-04-18T07:10:50.005Z,101339.55
2023-04-18T07:15:52.984Z,101338.77
2023-04-18T07:20:55.904Z,101335.95
2023-04-18T07:26:01.750Z,101332.70
2023-04-18T07:31:05.009Z,101332.18
2023-04-18T07:36:08.435Z,101337.00
2023-04-18T07:41:11.720Z,101333.72
2023-04-18T07:46:14.757Z,101331.55
2023-04-18T07:51:17.737Z,101331.38
2023-04-18T07:56:20.577Z,101329.48
2023-04-18T08:01:25.000Z,101330.08
2023-04-18T08:06:29.065Z,101330.48
2023-04-18T08:11:34.487Z,101324.31
2023-04-18T08:16:37.902Z,101321.11
2023-04-18T08:21:40.776Z,101319.94
2023-04-18T08:26:43.682Z,101318.88
2023-04-18T08:31:46.741Z,101314.48
2023-04-18T08:36:51.332Z,101314.23
2023-04-18T08:41:59.635Z,101311.73
2023-04-18T08:47:03.180Z,101309.45
2023-04-18T08:52:14.590Z,101307.74
2023-04-18T08:57:23.873Z,101303.48
2023-04-18T09:02:45.211Z,101302.04
2023-04-18T09:07:50.012Z,101293.86
2023-04-18T09:12:53.768Z,101286.12
2023-04-18T09:17:59.597Z,101280.40
2023-04-18T09:23:04.429Z,101279.33
2023-04-18T09:28:30.043Z,101276.82
2023-04-18T09:33:33.127Z,101274.52
2023-04-18T09:38:41.294Z,101274.67
2023-04-18T09:43:47.533Z,101271.73
2023-04-18T09:48:50.444Z,101267.50
2023-04-18T09:53:53.859Z,101264.11
2023-04-18T09:59:07.408Z,101264.02
2023-04-18T10:04:12.528Z,101260.45
2023-04-18T10:09:16.587Z,101257.86
2023-04-18T10:14:20.315Z,101254.78
2023-04-18T10:19:24.881Z,101242.83
2023-04-18T10:24:56.389Z,101238.95
2023-04-18T10:29:59.337Z,101229.06
2023-04-18T10:35:02.546Z,101224.40
2023-04-18T10:40:07.797Z,101220.13
2023-04-18T10:45:20.558Z,101219.35
2023-04-18T10:50:23.657Z,101216.64
2023-04-18T10:55:30.051Z,101211.10
2023-04-18T11:00:33.174Z,101207.81
2023-04-18T11:05:36.262Z,101200.71
2023-04-18T11:10:39.780Z,101196.69
2023-04-18T11:15:42.686Z,101192.43
2023-04-18T11:20:50.502Z,101189.58
2023-04-18T11:25:56.831Z,101172.80
2023-04-18T11:31:03.000Z,101172.20
2023-04-18T11:36:07.157Z,101166.46
2023-04-18T11:41:14.774Z,101161.81
2023-04-18T11:46:17.843Z,101156.70
2023-04-18T11:51:38.914Z,101151.61
2023-04-18T11:56:48.967Z,101154.15
2023-04-18T12:02:15.426Z,101149.98
2023-04-18T12:07:32.421Z,101146.11
2023-04-18T12:12:36.698Z,101136.67
2023-04-18T12:17:39.718Z,101135.66
2023-04-18T12:22:45.533Z,101133.67
2023-04-18T12:27:49.672Z,101135.80
2023-04-18T12:32:57.501Z,101130.08
2023-04-18T12:38:01.905Z,101126.55
2023-04-18T12:43:04.899Z,101120.67
2023-04-18T12:48:08.042Z,101116.61
2023-04-18T12:53:10.884Z,101113.20
2023-04-18T12:58:18.835Z,101110.86
2023-04-18T13:03:22.311Z,101102.73
2023-04-18T13:08:25.697Z,101094.34
2023-04-18T13:13:28.607Z,101087.52
2023-04-18T13:18:31.525Z,101087.06
2023-04-18T13:23:34.519Z,101087.13
2023-04-18T13:28:37.526Z,101084.80
2023-04-18T13:33:40.940Z,101083.27
2023-04-18T13:38:43.782Z,101082.05
2023-04-18T13:43:46.947Z,101080.88
2023-04-18T13:48:50.158Z,101085.53
2023-04-18T13:53:52.931Z,101087.13
2023-04-18T13:58:56.288Z,101085.38
2023-04-18T14:03:59.410Z,101083.85
2023-04-18T14:09:02.392Z,101083.63
2023-04-18T14:14:06.018Z,101081.53
2023-04-18T14:19:09.025Z,101076.81
2023-04-18T14:24:12.328Z,101077.20
2023-04-18T14:29:15.848Z,101076.18
2023-04-18T14:34:18.959Z,101073.91
2023-04-18T14:39:22.323Z,101079.89
2023-04-18T14:44:25.300Z,101082.89
2023-04-18T14:49:28.291Z,101085.20
2023-04-18T14:54:32.673Z,101081.89
2023-04-18T14:59:35.732Z,101081.05
2023-04-18T15:04:38.676Z,101080.67
2023-04-18T15:09:41.640Z,101081.16
2023-04-18T15:14:44.752Z,101081.14
2023-04-18T15:19:47.673Z,101080.00
2023-04-18T15:24:50.866Z,101083.89
2023-04-18T15:29:53.847Z,101084.39
2023-04-18T15:34:56.680Z,101079.40
2023-04-18T15:40:00.517Z,101082.92
2023-04-18T15:45:04.629Z,101081.23
2023-04-18T15:50:09.036Z,101081.44
2023-04-18T15:55:15.469Z,101083.50
2023-04-18T16:00:19.866Z,101081.77
2023-04-18T16:05:22.706Z,101077.77
2023-04-18T16:10:25.761Z,101073.45
2023-04-18T16:15:31.998Z,101072.26
2023-04-18T16:20:34.995Z,101070.79
2023-04-18T16:25:38.004Z,101069.73
2023-04-18T16:30:43.976Z,101068.14
2023-04-18T16:35:46.894Z,101063.20
2023-04-18T16:40:49.796Z,101062.27
2023-04-18T16:45:56.540Z,101056.78
2023-04-18T16:50:59.496Z,101053.02
2023-04-18T16:56:03.522Z,101058.35
2023-04-18T17:01:08.306Z,101057.02
2023-04-18T17:06:11.175Z,101056.17
2023-04-18T17:11:14.082Z,101059.09
2023-04-18T17:16:18.183Z,101058.65
2023-04-18T17:21:21.224Z,101059.19
2023-04-18T17:26:25.969Z,101061.45
2023-04-18T17:31:29.847Z,101059.11
2023-04-18T17:36:32.903Z,101062.29
2023-04-18T17:41:38.998Z,101062.67
2023-04-18T17:46:42.290Z,101063.65
2023-04-18T17:51:45.907Z,101071.23
2023-04-18T17:56:50.461Z,101078.73
2023-04-18T18:01:53.465Z,101073.71
2023-04-18T18:06:57.478Z,101082.02
2023-04-18T18:12:00.392Z,101087.23
2023-04-18T18:17:03.997Z,101082.77
2023-04-18T18:22:07.335Z,101081.66
2023-04-18T18:27:10.236Z,101081.34
2023-04-18T18:32:13.039Z,101077.25
2023-04-18T18:37:15.936Z,101076.48
2023-04-18T18:42:18.841Z,101069.73
2023-04-18T18:47:21.690Z,101067.71
2023-04-18T18:52:25.281Z,101062.45
2023-04-18T18:57:28.175Z,101063.73
2023-04-18T19:02:31.564Z,101065.00
2023-04-18T19:07:34.906Z,101064.20
2023-04-18T19:12:38.489Z,101061.66
2023-04-18T19:17:41.838Z,101058.77
2023-04-18T19:22:44.736Z,101051.20
2023-04-18T19:27:47.557Z,101045.19
2023-04-18T19:32:50.741Z,101051.22
2023-04-18T19:38:01.527Z,101046.69
2023-04-18T19:43:04.552Z,101042.99
2023-04-18T19:48:07.475Z,101034.66
2023-04-18T19:53:11.286Z,101033.00
2023-04-18T19:58:34.720Z,101023.91
2023-04-18T20:03:38.506Z,101019.23
2023-04-18T20:08:42.105Z,101019.06
2023-04-18T20:13:45.427Z,101012.59
2023-04-18T20:18:49.350Z,101007.80
2023-04-18T20:23:52.365Z,101002.48
2023-04-18T20:28:55.256Z,101002.79
2023-04-18T20:33:58.273Z,100996.45
2023-04-18T20:39:02.608Z,100995.56
2023-04-18T20:44:06.270Z,100991.00
2023-04-18T20:49:09.853Z,100991.71
2023-04-18T20:54:13.528Z,100988.79
2023-04-18T20:59:16.677Z,100985.34
2023-04-18T21:04:20.968Z,100988.58
2023-04-18T21:09:24.024Z,100983.95
2023-04-18T21:14:26.927Z,100982.73
2023-04-18T21:19:29.840Z,100977.91
2023-04-18T21:24:32.733Z,100968.81
2023-04-18T21:29:36.045Z,100966.45
2023-04-18T21:34:38.955Z,100968.10
2023-04-18T21:39:42.839Z,100969.86
2023-04-18T21:44:45.775Z,100967.93
2023-04-18T21:49:49.524Z,100957.37
2023-04-18T21:54:53.232Z,100956.77
2023-04-18T21:59:57.934Z,100952.90
2023-04-18T22:05:00.878Z,100947.77
2023-04-18T22:10:05.894Z,100943.20
2023-04-18T22:15:08.945Z,100941.98
2023-04-18T22:20:12.932Z,100939.52
2023-04-18T22:25:15.789Z,100935.20
2023-04-18T22:30:18.685Z,100927.42
2023-04-18T22:35:22.097Z,100922.09
2023-04-18T22:40:25.098Z,100915.05
2023-04-18T22:45:28.003Z,100910.53
2023-04-18T22:50:30.926Z,100907.77
2023-04-18T22:55:34.424Z,100899.41
2023-04-18T23:00:38.021Z,100895.31
2023-04-18T23:05:41.475Z,100889.52
2023-04-18T23:10:44.573Z,100886.85
2023-04-18T23:15:47.512Z,100882.80
2023-04-18T23:20:50.588Z,100879.14
2023-04-18T23:25:53.494Z,100872.08
2023-04-18T23:30:56.399Z,100869.65
2023-04-18T23:36:00.063Z,100861.36
2023-04-18T23:41:03.387Z,100852.64
2023-04-18T23:46:06.344Z,100843.91
2023-04-18T23:51:09.243Z,100834.62
2023-04-18T23:56:12.252Z,100829.45
